College Park, MD

2:36 AM EST on November 22, 2017 (GMT -0500)
College Park

Weather History for KCGS - February, 2014

Change the Weather History Date:

Monday, February 3, 2014

  Actual Average Record
Temperature  
Mean Temperature 40 °F -  
Max Temperature 47 °F 46 °F 67 °F (1986)
Min Temperature 31 °F 26 °F 3 °F (1955)
Degree Days  
Heating Degree Days 26    
Moisture  
Dew Point 36 °F    
Average Humidity 90    
Maximum Humidity 98    
Minimum Humidity 74    
Precipitation  
Precipitation 0.00 in - - ()
Sea Level Pressure  
Sea Level Pressure 30.14 in    
Wind  
Wind Speed 6 mph (North)    
Max Wind Speed 12 mph    
Max Gust Speed 17 mph    
Visibility 7 miles    
Events      
Averages and records for this station are not official NWS values.
T = Trace of Precipitation, MM = Missing Value Source: NWS Daily Summary

Daily Weather History Graph

Daily Weather History Graph

Search for Another Location

Airport or City:

Trip Planner

Search our weather history database for the weather conditions in past years. The results will help you decide how hot, cold, wet, or windy it might be!

Date:

Astronomy

Feb. 03, 2014 Rise Set
Actual Time 7:12 AM EST 5:31 PM EST
Civil Twilight 6:44 AM EST 5:59 PM EST
Nautical Twilight 6:12 AM EST 6:31 PM EST
Astronomical Twilight 5:41 AM EST 7:02 PM EST
Moon 9:15 AM EST (2/3) 10:16 PM EST (2/3)
Length of Visible Light 11h 15m
Length of Day
10h 19m
Waxing Crescent, 19% of the Moon is Illuminated
Feb 3
Waxing Crescent
Feb 6
First Quarter
Feb 14
Full
Feb 22
Last Quarter
Mar 1
New

Hourly Weather History & Observations

Time (EST) Temp. Windchill Dew Point Humidity Pressure Visibility Wind Dir Wind Speed Gust Speed Precip Events Conditions
12:10 AM 48.2 °F - 40.1 °F 74% 30.07 in 10.0 mi NNE 3.5 mph - N/A   Overcast
12:30 AM 47.8 °F - 40.5 °F 76% 30.07 in 10.0 mi NNE 3.5 mph - N/A   Overcast
12:50 AM 47.3 °F - 40.5 °F 77% 30.06 in 10.0 mi North 8.1 mph - N/A   Overcast
1:10 AM 46.9 °F - 40.5 °F 78% 30.07 in 10.0 mi NNE 5.8 mph - N/A   Overcast
1:30 AM 46.0 °F 42.5 °F 40.3 °F 80% 30.07 in 10.0 mi North 6.9 mph - N/A   Overcast
1:50 AM 45.7 °F 44.4 °F 40.5 °F 82% 30.07 in 10.0 mi North 3.5 mph - N/A   Overcast
2:10 AM 45.5 °F 42.5 °F 40.6 °F 83% 30.08 in 10.0 mi NNW 5.8 mph - N/A   Overcast
2:30 AM 44.4 °F 39.5 °F 41.4 °F 89% 30.08 in 5.0 mi North 9.2 mph - N/A   Overcast
2:50 AM 43.7 °F 41.1 °F 41.7 °F 93% 30.09 in 5.0 mi North 4.6 mph - N/A   Overcast
3:10 AM 43.0 °F 40.3 °F 41.7 °F 95% 30.06 in 5.0 mi NNE 4.6 mph - N/A   Overcast
3:30 AM 42.8 °F 38.6 °F 41.4 °F 95% 30.05 in 5.0 mi NNE 6.9 mph - N/A   Overcast
3:50 AM 42.4 °F 38.8 °F 41.2 °F 95% 30.04 in 5.0 mi NNE 5.8 mph - N/A   Overcast
4:10 AM 42.4 °F 39.6 °F 41.2 °F 95% 30.07 in 4.0 mi North 4.6 mph - N/A   Overcast
4:30 AM 42.1 °F 37.1 °F 41.2 °F 97% 30.06 in 2.5 mi North 8.1 mph - N/A   Overcast
4:50 AM 41.9 °F 38.2 °F 41.0 °F 97% 30.05 in 4.0 mi NNE 5.8 mph - N/A   Overcast
5:10 AM 41.5 °F 37.1 °F 40.5 °F 96% 30.05 in 5.0 mi NNE 6.9 mph - N/A   Overcast
5:30 AM 41.4 °F 38.4 °F 40.3 °F 96% 30.06 in 4.0 mi NNE 4.6 mph - N/A   Overcast
5:50 AM 41.2 °F 37.3 °F 40.3 °F 97% 30.05 in 4.0 mi NE 5.8 mph - N/A   Overcast
6:10 AM 41.0 °F - 39.6 °F 95% 30.07 in 5.0 mi Calm Calm - N/A   Overcast
6:30 AM 40.5 °F 35.8 °F 39.2 °F 95% 30.06 in 4.0 mi NNE 6.9 mph - N/A   Overcast
6:50 AM 40.1 °F 33.2 °F 38.8 °F 95% 30.04 in 5.0 mi NE 11.5 mph 16.1 mph N/A   Overcast
7:10 AM 39.7 °F 36.5 °F 38.7 °F 96% 30.05 in 5.0 mi ENE 4.6 mph - N/A   Overcast
7:30 AM 39.4 °F 33.2 °F 38.3 °F 96% 30.03 in 4.0 mi NE 9.2 mph - N/A   Overcast
7:50 AM 39.2 °F 35.0 °F 38.1 °F 96% 30.04 in 5.0 mi NE 5.8 mph - N/A   Overcast
8:10 AM 39.2 °F 35.9 °F 37.9 °F 95% 30.04 in 2.5 mi NNE 4.6 mph - N/A   Overcast
8:30 AM 38.8 °F 33.8 °F 37.8 °F 96% 30.02 in 4.0 mi NE 6.9 mph - N/A   Overcast
8:50 AM 38.3 °F 31.9 °F 37.4 °F 97% 30.05 in 3.0 mi North 9.2 mph 17.3 mph N/A   Overcast
9:10 AM 38.5 °F 32.1 °F 37.4 °F 96% 30.08 in 4.0 mi North 9.2 mph - N/A   Overcast
9:30 AM 38.5 °F 35.0 °F 37.4 °F 96% 30.07 in 4.0 mi North 4.6 mph - N/A   Overcast
9:50 AM 38.5 °F 34.1 °F 37.4 °F 96% 30.07 in 5.0 mi North 5.8 mph - N/A   Overcast
10:10 AM 38.5 °F 33.4 °F 37.4 °F 96% 30.05 in 5.0 mi NNE 6.9 mph - N/A   Overcast
10:30 AM 38.3 °F 32.5 °F 37.0 °F 95% 30.04 in 7.0 mi NE 8.1 mph - N/A   Overcast
10:50 AM 38.3 °F 34.8 °F 36.9 °F 95% 30.04 in 10.0 mi NNE 4.6 mph - N/A   Overcast
11:10 AM 38.3 °F 33.2 °F 36.7 °F 94% 30.04 in 10.0 mi NNE 6.9 mph - N/A   Overcast
11:30 AM 37.9 °F 30.9 °F 36.7 °F 95% 30.04 in 10.0 mi North 10.4 mph - N/A   Overcast
11:50 AM 38.1 °F 33.7 °F 36.5 °F 94% 30.06 in 10.0 mi North 5.8 mph - N/A   Overcast
12:05 PM 37.6 °F 31.6 °F 36.0 °F 94% 30.07 in 10.0 mi North 8.1 mph 16.1 mph N/A   Overcast
12:30 PM 37.4 °F 30.8 °F 35.6 °F 93% 30.07 in 4.0 mi North 9.2 mph - N/A   Overcast
12:50 PM 37.0 °F 31.6 °F 35.8 °F 95% 30.08 in 3.0 mi North 6.9 mph - N/A   Overcast
1:10 PM 36.9 °F 30.7 °F 35.8 °F 96% 30.08 in 2.0 mi North 8.1 mph - N/A   Overcast
1:30 PM 36.9 °F 30.7 °F 35.8 °F 96% 30.08 in 4.0 mi North 8.1 mph - N/A   Overcast
1:50 PM 37.2 °F 30.0 °F 36.0 °F 95% 30.08 in 5.0 mi North 10.4 mph 16.1 mph N/A   Overcast
2:10 PM 37.6 °F 31.6 °F 36.0 °F 94% 30.09 in 7.0 mi North 8.1 mph - N/A   Overcast
2:25 PM 37.8 °F 31.8 °F 36.1 °F 94% 30.10 in 7.0 mi North 8.1 mph - N/A   Overcast
2:50 PM 37.9 °F 32.1 °F 36.1 °F 93% 30.11 in 7.0 mi NNW 8.1 mph - N/A   Overcast
3:10 PM 38.5 °F 34.1 °F 36.5 °F 93% 30.12 in 10.0 mi North 5.8 mph - N/A   Overcast
3:25 PM 38.7 °F 31.4 °F 36.0 °F 90% - 10.0 mi North 11.5 mph - N/A   Overcast
3:50 PM 38.8 °F 33.2 °F 35.6 °F 88% 30.15 in 10.0 mi NNW 8.1 mph - N/A   Overcast
4:10 PM 38.7 °F 31.8 °F 35.2 °F 87% 30.16 in 10.0 mi NNW 10.4 mph - N/A   Overcast
4:30 PM 38.7 °F 32.9 °F 34.7 °F 86% 30.17 in 10.0 mi North 8.1 mph - N/A   Overcast
4:50 PM 38.3 °F 33.2 °F 34.7 °F 87% 30.18 in 10.0 mi NNW 6.9 mph - N/A   Overcast
5:10 PM 37.9 °F 31.5 °F 33.8 °F 85% 30.20 in 10.0 mi NNW 9.2 mph - N/A   Overcast
5:30 PM 37.9 °F 32.1 °F 33.8 °F 85% 30.22 in 10.0 mi NNW 8.1 mph - N/A   Overcast
5:50 PM 37.8 °F 30.2 °F 32.9 °F 83% 30.22 in 10.0 mi North 11.5 mph 17.3 mph N/A   Overcast
6:10 PM 37.6 °F 34.0 °F 32.5 °F 82% 30.23 in 10.0 mi North 4.6 mph - N/A   Overcast
6:30 PM 37.4 °F 33.8 °F 33.1 °F 84% 30.24 in 10.0 mi NNW 4.6 mph - N/A   Overcast
6:55 PM 36.7 °F 31.2 °F 32.4 °F 84% 30.24 in 10.0 mi North 6.9 mph - N/A   Overcast
7:15 PM 36.3 °F 30.8 °F 32.2 °F 85% 30.25 in 10.0 mi NNW 6.9 mph - N/A   Overcast
7:35 PM 36.5 °F 31.8 °F 32.0 °F 84% 30.26 in 10.0 mi NNW 5.8 mph - N/A   Overcast
7:55 PM 36.3 °F 31.6 °F 32.0 °F 84% 30.28 in 10.0 mi NNW 5.8 mph - N/A   Overcast
8:15 PM 36.3 °F 30.8 °F 31.8 °F 84% 30.30 in 10.0 mi NNW 6.9 mph - N/A   Overcast
8:35 PM 36.0 °F 32.1 °F 32.0 °F 86% 30.30 in 10.0 mi NNW 4.6 mph - N/A   Overcast
8:55 PM 36.0 °F 29.6 °F 31.1 °F 82% 30.32 in 10.0 mi North 8.1 mph - N/A   Overcast
9:15 PM 35.6 °F 30.7 °F 30.9 °F 83% 30.31 in 10.0 mi North 5.8 mph - N/A   Overcast
9:35 PM 34.9 °F 29.0 °F 30.2 °F 83% 30.31 in 10.0 mi North 6.9 mph - N/A   Mostly Cloudy
9:55 PM 34.2 °F 30.0 °F 30.2 °F 85% 30.32 in 10.0 mi North 4.6 mph - N/A   Clear
10:15 PM 33.8 °F - 30.0 °F 86% 30.32 in 10.0 mi Calm Calm - N/A   Clear
10:35 PM 32.9 °F - 30.0 °F 89% 30.33 in 10.0 mi Calm Calm - N/A   Clear
10:55 PM 31.6 °F - 30.2 °F 94% 30.34 in 10.0 mi Calm Calm - N/A   Clear
11:15 PM 31.1 °F - 30.0 °F 96% 30.34 in 10.0 mi Calm Calm - N/A   Clear
11:30 PM 31.1 °F - 30.2 °F 96% 30.34 in 7.0 mi Calm Calm - N/A   Clear
11:55 PM 31.1 °F - 30.6 °F 98% 30.35 in 5.0 mi Calm Calm - N/A   Clear